Time;durP1;ratioP1;P1;durP2;ratioP2;P2;SDS_P1;SDS_P2;PMS_P1;PMS_P2;Temp;Humidity;BMP_temperature;BMP_pressure;BME280_temperature;BME280_humidity;BME280_pressure;Samples;Min_cycle;Max_cycle;Signal;HPM_P1;HPM_P2
2023/03/26 00:00:25;;;;;;;4.23;2.13;;;;;;;;;;5076124;28;20229;-86
2023/03/26 00:02:52;;;;;;;3.60;2.17;;;;;;;;;;5075064;28;20237;-85
2023/03/26 00:05:20;;;;;;;10.13;2.77;;;;;;;;;;5075838;28;20198;-86
2023/03/26 00:07:47;;;;;;;5.07;2.10;;;;;;;;;;5075179;28;20626;-87
2023/03/26 00:10:14;;;;;;;4.53;1.80;;;;;;;;;;5075604;28;20236;-87
2023/03/26 00:12:41;;;;;;;3.53;2.00;;;;;;;;;;5074655;28;20226;-86
2023/03/26 00:15:09;;;;;;;7.53;2.40;;;;;;;;;;5075881;28;20202;-85
2023/03/26 00:17:37;;;;;;;4.50;2.00;;;;;;;;;;5075307;28;20237;-86
2023/03/26 00:20:06;;;;;;;4.80;2.03;;;;;;;;;;5075637;28;20588;-86
2023/03/26 00:22:33;;;;;;;8.57;2.60;;;;;;;;;;5073873;28;20316;-86
2023/03/26 00:25:00;;;;;;;5.10;1.87;;;;;;;;;;5075244;28;20248;-86
2023/03/26 00:27:28;;;;;;;5.33;2.57;;;;;;;;;;5074902;28;20233;-87
2023/03/26 00:29:55;;;;;;;6.47;2.60;;;;;;;;;;5075509;28;20237;-87
2023/03/26 00:32:26;;;;;;;6.47;2.30;;;;;;;;;;5074779;28;20237;-86
2023/03/26 00:34:55;;;;;;;3.77;2.00;;;;;;;;;;5075596;28;20209;-85
2023/03/26 00:37:25;;;;;;;4.67;2.07;;;;;;;;;;5074934;28;20298;-86
2023/03/26 00:39:52;;;;;;;8.73;2.20;;;;;;;;;;5075583;28;20232;-85
2023/03/26 00:42:19;;;;;;;8.00;2.37;;;;;;;;;;5074509;28;20233;-86
2023/03/26 00:44:46;;;;;;;7.20;2.50;;;;;;;;;;5075102;28;20202;-86
2023/03/26 00:47:13;;;;;;;8.90;2.43;;;;;;;;;;5074559;28;20236;-86
2023/03/26 00:49:40;;;;;;;4.60;2.17;;;;;;;;;;5075191;28;20236;-86
2023/03/26 00:52:09;;;;;;;5.63;2.20;;;;;;;;;;5074937;28;20205;-86
2023/03/26 00:54:36;;;;;;;4.43;2.20;;;;;;;;;;5074985;28;20549;-87
2023/03/26 00:57:05;;;;;;;5.60;2.30;;;;;;;;;;5074775;28;20201;-86
2023/03/26 00:59:34;;;;;;;6.23;2.17;;;;;;;;;;5075148;28;20229;-86
2023/03/26 01:02:03;;;;;;;3.27;2.10;;;;;;;;;;5074308;28;20232;-86
2023/03/26 01:04:33;;;;;;;5.50;2.30;;;;;;;;;;5073398;28;20205;-86
2023/03/26 01:07:02;;;;;;;2.10;1.70;;;;;;;;;;5074419;28;20600;-87
2023/03/26 01:09:33;;;;;;;11.67;2.80;;;;;;;;;;5074746;28;20237;-87
2023/03/26 01:12:01;;;;;;;4.70;2.30;;;;;;;;;;5073800;28;20229;-87
2023/03/26 01:14:28;;;;;;;7.40;2.77;;;;;;;;;;5074470;28;20225;-86
2023/03/26 01:16:56;;;;;;;4.37;2.37;;;;;;;;;;5074012;28;20235;-86
2023/03/26 01:19:28;;;;;;;10.57;2.93;;;;;;;;;;5074864;28;20252;-86
2023/03/26 01:21:55;;;;;;;5.00;2.77;;;;;;;;;;5073936;28;20257;-86
2023/03/26 01:24:23;;;;;;;8.47;2.70;;;;;;;;;;5074429;28;20204;-86
2023/03/26 01:27:06;;;;;;;7.73;2.60;;;;;;;;;;5073447;28;20228;-86
2023/03/26 01:29:36;;;;;;;6.63;2.53;;;;;;;;;;5074541;28;20701;-86
2023/03/26 01:32:14;;;;;;;3.20;2.17;;;;;;;;;;5073076;28;20720;-87
2023/03/26 01:34:48;;;;;;;9.80;2.80;;;;;;;;;;5074267;28;20209;-87
2023/03/26 01:37:20;;;;;;;5.10;2.20;;;;;;;;;;5073865;28;20382;-86
2023/03/26 01:39:52;;;;;;;7.47;2.13;;;;;;;;;;5074360;28;20217;-87
2023/03/26 01:42:22;;;;;;;7.40;2.77;;;;;;;;;;5073696;28;20279;-87
2023/03/26 01:44:53;;;;;;;5.73;2.40;;;;;;;;;;5074617;28;20193;-86
2023/03/26 01:47:21;;;;;;;4.50;2.50;;;;;;;;;;5073338;28;20248;-87
2023/03/26 01:49:48;;;;;;;6.90;2.37;;;;;;;;;;5074133;28;20225;-87
2023/03/26 01:52:16;;;;;;;4.40;2.40;;;;;;;;;;5073334;28;20243;-87
2023/03/26 01:54:45;;;;;;;9.00;2.40;;;;;;;;;;5074143;28;20342;-86
2023/03/26 01:57:16;;;;;;;7.67;2.50;;;;;;;;;;5073863;28;20770;-87
2023/03/26 01:59:49;;;;;;;3.37;2.00;;;;;;;;;;5073960;28;20229;-87
2023/03/26 02:02:17;;;;;;;6.20;2.07;;;;;;;;;;5073685;28;20241;-87
2023/03/26 02:04:51;;;;;;;5.50;2.40;;;;;;;;;;5073964;28;20208;-87
2023/03/26 02:07:21;;;;;;;6.93;2.10;;;;;;;;;;5073448;28;20236;-87
2023/03/26 02:09:51;;;;;;;8.63;2.33;;;;;;;;;;5074345;28;20221;-89
2023/03/26 02:12:20;;;;;;;5.00;1.90;;;;;;;;;;5073088;28;20263;-86
2023/03/26 02:14:47;;;;;;;6.43;2.40;;;;;;;;;;5073831;28;20229;-87
2023/03/26 02:17:15;;;;;;;7.83;2.20;;;;;;;;;;5073540;28;20236;-87
2023/03/26 02:19:42;;;;;;;8.47;2.70;;;;;;;;;;5074030;28;20225;-87
2023/03/26 02:22:14;;;;;;;7.43;2.70;;;;;;;;;;5073169;28;20244;-87
2023/03/26 02:24:41;;;;;;;7.67;2.47;;;;;;;;;;5073700;28;20193;-86
2023/03/26 02:27:11;;;;;;;6.83;2.87;;;;;;;;;;5074355;28;20700;-87
2023/03/26 02:29:39;;;;;;;8.63;2.50;;;;;;;;;;5075111;28;20265;-86
2023/03/26 02:32:07;;;;;;;8.50;3.07;;;;;;;;;;5075788;28;20249;-88
2023/03/26 02:34:35;;;;;;;9.20;2.30;;;;;;;;;;5074798;28;20236;-86
2023/03/26 02:37:02;;;;;;;6.50;2.03;;;;;;;;;;5076195;28;20292;-85
2023/03/26 02:39:29;;;;;;;5.23;2.00;;;;;;;;;;5074334;28;20218;-88
2023/03/26 02:41:56;;;;;;;6.13;2.10;;;;;;;;;;5073024;28;20233;-87
2023/03/26 02:44:23;;;;;;;7.47;2.40;;;;;;;;;;5072751;28;20209;-87
2023/03/26 02:46:52;;;;;;;7.33;2.57;;;;;;;;;;5073259;28;20225;-87
2023/03/26 02:49:20;;;;;;;6.33;2.10;;;;;;;;;;5073622;28;20229;-87
2023/03/26 02:51:47;;;;;;;8.03;2.67;;;;;;;;;;5073227;28;20276;-87
2023/03/26 02:54:15;;;;;;;9.20;2.80;;;;;;;;;;5073357;28;20225;-87
2023/03/26 02:56:42;;;;;;;6.70;2.13;;;;;;;;;;5073300;28;20233;-87
2023/03/26 02:59:09;;;;;;;11.23;2.60;;;;;;;;;;5073300;28;20216;-87
2023/03/26 03:01:41;;;;;;;9.67;2.60;;;;;;;;;;5073225;28;20240;-86
2023/03/26 03:04:10;;;;;;;8.23;2.70;;;;;;;;;;5073488;28;20461;-87
2023/03/26 03:06:38;;;;;;;5.43;2.30;;;;;;;;;;5073047;28;20229;-87
2023/03/26 03:09:05;;;;;;;4.53;2.17;;;;;;;;;;5073436;28;20689;-86
2023/03/26 03:11:32;;;;;;;12.10;2.10;;;;;;;;;;5073256;28;20292;-87
2023/03/26 03:13:59;;;;;;;9.63;2.37;;;;;;;;;;5073422;28;20250;-86
2023/03/26 03:16:27;;;;;;;5.37;2.70;;;;;;;;;;5072872;28;20216;-87
2023/03/26 03:18:55;;;;;;;5.97;2.73;;;;;;;;;;5073257;28;20622;-87
2023/03/26 03:21:23;;;;;;;5.57;2.47;;;;;;;;;;5072439;28;20211;-86
2023/03/26 03:23:50;;;;;;;11.33;2.70;;;;;;;;;;5072951;28;20209;-86
2023/03/26 03:26:20;;;;;;;8.83;2.57;;;;;;;;;;5072106;28;20212;-88
2023/03/26 03:28:47;;;;;;;10.40;3.00;;;;;;;;;;5073293;28;20212;-87
2023/03/26 03:31:14;;;;;;;9.63;3.00;;;;;;;;;;5072256;28;20229;-88
2023/03/26 03:33:42;;;;;;;9.57;2.90;;;;;;;;;;5073874;28;20209;-87
2023/03/26 03:36:10;;;;;;;5.77;2.63;;;;;;;;;;5072838;28;20248;-87
2023/03/26 03:38:38;;;;;;;5.63;2.40;;;;;;;;;;5072322;28;20232;-87
2023/03/26 03:41:06;;;;;;;12.50;3.43;;;;;;;;;;5073012;28;20236;-87
2023/03/26 03:43:33;;;;;;;12.17;3.33;;;;;;;;;;5072467;28;20235;-87
2023/03/26 03:46:00;;;;;;;7.10;3.00;;;;;;;;;;5073153;28;20197;-86
2023/03/26 03:48:27;;;;;;;7.90;2.73;;;;;;;;;;5072174;28;20736;-88
2023/03/26 03:50:55;;;;;;;10.73;3.13;;;;;;;;;;5073084;28;20257;-86
2023/03/26 03:53:24;;;;;;;8.73;2.50;;;;;;;;;;5072146;28;20812;-86
2023/03/26 03:55:53;;;;;;;8.40;2.67;;;;;;;;;;5074112;28;20331;-87
2023/03/26 03:58:20;;;;;;;5.90;2.60;;;;;;;;;;5075638;28;20229;-86
2023/03/26 04:00:48;;;;;;;8.57;3.27;;;;;;;;;;5076208;28;20221;-86
2023/03/26 04:03:15;;;;;;;10.10;3.30;;;;;;;;;;5075512;28;20282;-87
2023/03/26 04:05:48;;;;;;;7.80;2.57;;;;;;;;;;5075970;28;20190;-86
2023/03/26 04:08:15;;;;;;;7.73;2.50;;;;;;;;;;5075765;28;20426;-86
2023/03/26 04:10:42;;;;;;;7.63;3.13;;;;;;;;;;5076361;28;20229;-88
2023/03/26 04:13:11;;;;;;;5.27;2.37;;;;;;;;;;5076073;28;20311;-86
2023/03/26 04:15:38;;;;;;;5.43;2.70;;;;;;;;;;5076046;28;20217;-86
2023/03/26 04:18:09;;;;;;;5.87;2.20;;;;;;;;;;5076568;28;20431;-86
2023/03/26 04:20:37;;;;;;;5.37;2.60;;;;;;;;;;5076984;28;20267;-86
2023/03/26 04:23:04;;;;;;;9.53;2.63;;;;;;;;;;5075352;28;20652;-87
2023/03/26 04:25:32;;;;;;;3.77;2.47;;;;;;;;;;5075424;28;20201;-87
2023/03/26 04:28:00;;;;;;;9.33;2.60;;;;;;;;;;5076400;28;20233;-86
2023/03/26 04:30:28;;;;;;;8.97;2.80;;;;;;;;;;5077290;28;20229;-85
2023/03/26 04:32:57;;;;;;;8.13;2.43;;;;;;;;;;5075951;28;20240;-85
2023/03/26 04:35:24;;;;;;;9.43;2.40;;;;;;;;;;5076838;28;20240;-86
2023/03/26 04:37:51;;;;;;;7.50;2.77;;;;;;;;;;5076974;28;20728;-86
2023/03/26 04:40:20;;;;;;;7.00;2.80;;;;;;;;;;5076994;28;20317;-85
2023/03/26 04:42:48;;;;;;;8.93;2.93;;;;;;;;;;5075950;28;20286;-86
2023/03/26 04:45:16;;;;;;;8.83;2.50;;;;;;;;;;5076951;28;20204;-85
2023/03/26 04:47:45;;;;;;;7.53;3.10;;;;;;;;;;5076653;28;20236;-86
2023/03/26 04:50:12;;;;;;;6.07;2.60;;;;;;;;;;5075341;28;20571;-85
2023/03/26 04:52:39;;;;;;;11.63;2.87;;;;;;;;;;5076246;28;20236;-86
2023/03/26 04:55:08;;;;;;;9.63;2.53;;;;;;;;;;5076559;28;20236;-85
2023/03/26 04:57:37;;;;;;;8.30;2.97;;;;;;;;;;5075768;28;20236;-85
2023/03/26 05:00:10;;;;;;;9.53;3.10;;;;;;;;;;5076554;28;20228;-86
2023/03/26 05:02:40;;;;;;;11.57;2.87;;;;;;;;;;5074734;28;20233;-85
2023/03/26 05:05:09;;;;;;;9.87;2.83;;;;;;;;;;5076193;28;20209;-85
2023/03/26 05:07:37;;;;;;;5.40;2.53;;;;;;;;;;5075076;28;20240;-87
2023/03/26 05:10:05;;;;;;;6.67;2.90;;;;;;;;;;5075744;28;20883;-85
2023/03/26 05:12:32;;;;;;;7.33;2.67;;;;;;;;;;5074436;28;20241;-85
2023/03/26 05:14:59;;;;;;;6.27;2.70;;;;;;;;;;5075230;28;20720;-85
2023/03/26 05:17:29;;;;;;;7.17;2.40;;;;;;;;;;5075207;28;20233;-86
2023/03/26 05:19:56;;;;;;;6.50;2.50;;;;;;;;;;5074556;28;20232;-85
2023/03/26 05:22:25;;;;;;;3.57;2.17;;;;;;;;;;5074269;28;20229;-85
2023/03/26 05:24:52;;;;;;;7.93;2.83;;;;;;;;;;5075367;28;20205;-86
2023/03/26 05:27:19;;;;;;;4.87;2.67;;;;;;;;;;5074458;28;20236;-85
2023/03/26 05:29:47;;;;;;;8.17;2.60;;;;;;;;;;5074571;28;20256;-85
2023/03/26 05:32:14;;;;;;;9.33;2.40;;;;;;;;;;5073254;28;20236;-86
2023/03/26 05:34:41;;;;;;;11.00;2.80;;;;;;;;;;5073954;28;20580;-85
2023/03/26 05:37:08;;;;;;;7.77;2.50;;;;;;;;;;5073118;28;20228;-85
2023/03/26 05:39:37;;;;;;;3.63;2.60;;;;;;;;;;5073682;28;20240;-85
2023/03/26 05:42:06;;;;;;;7.10;2.50;;;;;;;;;;5072992;28;20251;-87
2023/03/26 05:44:33;;;;;;;3.77;2.67;;;;;;;;;;5074080;28;20304;-87
2023/03/26 05:47:00;;;;;;;7.93;2.97;;;;;;;;;;5073593;28;20253;-87
2023/03/26 05:49:28;;;;;;;5.93;2.40;;;;;;;;;;5073566;28;20696;-87
2023/03/26 05:51:55;;;;;;;5.90;2.47;;;;;;;;;;5073494;28;20232;-87
2023/03/26 05:54:22;;;;;;;4.07;2.83;;;;;;;;;;5073716;28;20686;-87
2023/03/26 05:56:51;;;;;;;4.83;2.40;;;;;;;;;;5073623;28;20233;-86
2023/03/26 05:59:18;;;;;;;8.33;2.80;;;;;;;;;;5073170;28;20717;-87
2023/03/26 06:01:46;;;;;;;7.57;2.93;;;;;;;;;;5073531;28;20240;-88
2023/03/26 06:04:14;;;;;;;10.50;2.70;;;;;;;;;;5074235;28;20285;-89
2023/03/26 06:06:41;;;;;;;5.23;2.47;;;;;;;;;;5074216;28;20603;-89
2023/03/26 06:09:10;;;;;;;7.37;2.63;;;;;;;;;;5076441;28;20209;-89
2023/03/26 06:11:37;;;;;;;9.10;2.40;;;;;;;;;;5073964;28;20940;-89
2023/03/26 06:14:06;;;;;;;3.40;2.20;;;;;;;;;;5074324;28;20220;-89
2023/03/26 06:16:33;;;;;;;6.13;2.73;;;;;;;;;;5073244;28;20232;-90
2023/03/26 06:19:00;;;;;;;7.23;2.67;;;;;;;;;;5074283;28;20554;-89
2023/03/26 06:21:28;;;;;;;3.80;2.77;;;;;;;;;;5073860;28;20205;-90
2023/03/26 06:23:55;;;;;;;4.93;2.50;;;;;;;;;;5073747;28;20205;-90
2023/03/26 06:26:22;;;;;;;3.83;2.50;;;;;;;;;;5073248;28;20197;-90
2023/03/26 06:28:49;;;;;;;8.70;2.83;;;;;;;;;;5073948;28;20201;-89
2023/03/26 06:31:18;;;;;;;7.27;3.20;;;;;;;;;;5073186;28;20610;-90
2023/03/26 06:33:47;;;;;;;6.27;2.13;;;;;;;;;;5074351;28;20281;-89
2023/03/26 06:36:14;;;;;;;5.17;2.87;;;;;;;;;;5074845;28;20213;-89
2023/03/26 06:38:41;;;;;;;6.37;2.53;;;;;;;;;;5076158;28;20202;-89
2023/03/26 06:41:08;;;;;;;5.87;2.97;;;;;;;;;;5078305;28;20225;-89
2023/03/26 06:43:36;;;;;;;4.17;2.23;;;;;;;;;;5078430;28;20229;-89
2023/03/26 06:46:12;;;;;;;9.03;2.83;;;;;;;;;;5077193;28;20200;-89
2023/03/26 06:48:41;;;;;;;10.27;2.53;;;;;;;;;;5076749;28;20207;-88
2023/03/26 06:51:08;;;;;;;5.60;2.63;;;;;;;;;;5075675;28;20256;-87
2023/03/26 06:53:36;;;;;;;4.87;2.57;;;;;;;;;;5072456;28;20233;-86
2023/03/26 06:56:03;;;;;;;6.70;2.30;;;;;;;;;;5073245;28;20228;-87
2023/03/26 06:58:30;;;;;;;7.13;2.70;;;;;;;;;;5072363;28;20256;-86
2023/03/26 07:00:57;;;;;;;9.60;2.83;;;;;;;;;;5072491;28;20233;-86
2023/03/26 07:03:24;;;;;;;6.50;2.80;;;;;;;;;;5072236;28;20237;-85
2023/03/26 07:05:53;;;;;;;9.77;3.53;;;;;;;;;;5072619;28;20212;-85
2023/03/26 07:08:22;;;;;;;8.60;2.93;;;;;;;;;;5071609;28;20232;-85
2023/03/26 07:10:49;;;;;;;8.27;2.83;;;;;;;;;;5072176;28;20264;-86
2023/03/26 07:13:16;;;;;;;9.77;3.23;;;;;;;;;;5071739;28;20886;-86
2023/03/26 07:15:43;;;;;;;8.87;3.23;;;;;;;;;;5072419;28;20748;-85
2023/03/26 07:18:10;;;;;;;4.50;2.67;;;;;;;;;;5071890;28;20240;-86
2023/03/26 07:20:37;;;;;;;9.00;3.40;;;;;;;;;;5073246;28;20225;-85
2023/03/26 07:23:06;;;;;;;8.50;4.67;;;;;;;;;;5072301;28;20237;-86
2023/03/26 07:25:33;;;;;;;8.87;3.93;;;;;;;;;;5073018;28;20209;-86
2023/03/26 07:28:03;;;;;;;9.50;4.53;;;;;;;;;;5072562;28;20705;-85
2023/03/26 07:30:34;;;;;;;9.60;4.53;;;;;;;;;;5074428;28;20225;-87
2023/03/26 07:33:19;;;;;;;12.23;3.50;;;;;;;;;;5077650;28;20233;-87
2023/03/26 07:35:49;;;;;;;9.03;2.93;;;;;;;;;;5078115;28;20296;-87
2023/03/26 07:38:23;;;;;;;8.20;2.50;;;;;;;;;;5077500;28;20228;-87
2023/03/26 07:40:57;;;;;;;3.73;2.27;;;;;;;;;;5077429;28;20230;-86
2023/03/26 07:43:31;;;;;;;6.30;3.03;;;;;;;;;;5076852;28;20237;-87
2023/03/26 07:45:58;;;;;;;7.37;2.77;;;;;;;;;;5077540;28;20209;-87
2023/03/26 07:48:26;;;;;;;5.57;2.20;;;;;;;;;;5076702;28;20237;-87
2023/03/26 07:50:54;;;;;;;7.43;3.00;;;;;;;;;;5077588;28;20763;-87
2023/03/26 07:53:23;;;;;;;9.13;3.00;;;;;;;;;;5076745;28;20237;-87
2023/03/26 07:55:52;;;;;;;9.20;3.00;;;;;;;;;;5076896;28;20701;-87
2023/03/26 07:58:41;;;;;;;9.27;3.20;;;;;;;;;;5076360;28;20237;-87
2023/03/26 08:01:10;;;;;;;7.83;3.03;;;;;;;;;;5077538;28;20225;-87
2023/03/26 08:03:48;;;;;;;9.60;3.10;;;;;;;;;;5076327;28;20264;-87
2023/03/26 08:06:17;;;;;;;10.73;2.50;;;;;;;;;;5076507;28;20687;-88
2023/03/26 08:08:49;;;;;;;8.10;2.73;;;;;;;;;;5077321;28;20209;-87
2023/03/26 08:11:23;;;;;;;5.17;2.63;;;;;;;;;;5076227;28;20228;-88
2023/03/26 08:13:55;;;;;;;8.60;2.83;;;;;;;;;;5077055;28;20193;-87
2023/03/26 08:16:24;;;;;;;10.10;2.90;;;;;;;;;;5076204;28;20739;-88
2023/03/26 08:18:55;;;;;;;9.37;2.77;;;;;;;;;;5076989;28;20205;-87
2023/03/26 08:21:26;;;;;;;10.80;2.80;;;;;;;;;;5076963;28;20662;-87
2023/03/26 08:24:02;;;;;;;6.33;3.03;;;;;;;;;;5076711;28;20201;-88
2023/03/26 08:26:34;;;;;;;7.97;2.40;;;;;;;;;;5076503;28;20201;-87
2023/03/26 08:29:08;;;;;;;8.53;3.07;;;;;;;;;;5076626;28;20622;-87
2023/03/26 08:31:37;;;;;;;8.40;2.97;;;;;;;;;;5075872;28;20243;-87
2023/03/26 08:34:05;;;;;;;6.73;2.53;;;;;;;;;;5076717;28;20228;-88
2023/03/26 08:36:32;;;;;;;6.17;2.63;;;;;;;;;;5075578;28;20259;-87
2023/03/26 08:39:00;;;;;;;7.00;3.00;;;;;;;;;;5076043;28;20597;-87
2023/03/26 08:41:43;;;;;;;7.23;3.03;;;;;;;;;;5074398;28;20210;-87
2023/03/26 08:44:46;;;;;;;6.50;2.63;;;;;;;;;;5075849;28;20215;-87
2023/03/26 08:47:28;;;;;;;9.03;3.10;;;;;;;;;;4993631;28;20245;-86
2023/03/26 08:50:13;;;;;;;6.70;3.13;;;;;;;;;;4994693;28;20231;-87
2023/03/26 08:52:50;;;;;;;4.30;2.67;;;;;;;;;;5049449;28;20252;-87
2023/03/26 08:55:30;;;;;;;6.53;3.50;;;;;;;;;;5087680;28;20225;-87
2023/03/26 08:58:10;;;;;;;4.80;2.80;;;;;;;;;;5095512;28;20239;-87
2023/03/26 09:00:51;;;;;;;10.07;3.10;;;;;;;;;;5083179;28;20225;-86
2023/03/26 09:03:33;;;;;;;7.40;3.23;;;;;;;;;;5042087;28;20233;-86
2023/03/26 09:06:12;;;;;;;3.77;2.60;;;;;;;;;;5073965;28;20204;-86
2023/03/26 09:08:54;;;;;;;7.57;3.17;;;;;;;;;;5074828;28;20229;-86
2023/03/26 09:11:41;;;;;;;3.13;2.10;;;;;;;;;;5074606;28;20236;-86
2023/03/26 09:14:26;;;;;;;4.20;2.17;;;;;;;;;;5074886;28;20201;-86
2023/03/26 09:17:05;;;;;;;5.30;2.23;;;;;;;;;;5074131;28;20240;-87
2023/03/26 09:19:56;;;;;;;3.57;1.97;;;;;;;;;;5074384;28;20255;-86
2023/03/26 09:22:34;;;;;;;4.60;1.90;;;;;;;;;;5056198;28;20794;-86
2023/03/26 09:25:20;;;;;;;4.17;2.10;;;;;;;;;;5056400;28;20206;-87
2023/03/26 09:28:00;;;;;;;4.77;3.30;;;;;;;;;;5056117;28;20233;-88
2023/03/26 09:30:37;;;;;;;2.60;1.70;;;;;;;;;;5055728;28;20233;-86
2023/03/26 09:33:15;;;;;;;4.30;2.10;;;;;;;;;;5054873;28;20666;-86
2023/03/26 09:35:53;;;;;;;7.03;2.60;;;;;;;;;;5055150;28;20197;-87
2023/03/26 09:38:44;;;;;;;2.70;2.40;;;;;;;;;;5059311;28;20609;-86
2023/03/26 09:41:15;;;;;;;3.00;2.43;;;;;;;;;;5054462;28;20236;-87
2023/03/26 09:44:04;;;;;;;6.23;3.57;;;;;;;;;;5074409;28;20217;-87
2023/03/26 09:46:38;;;;;;;3.10;2.23;;;;;;;;;;5074331;28;20197;-86
2023/03/26 09:49:20;;;;;;;2.87;2.30;;;;;;;;;;5075540;28;20201;-86
2023/03/26 09:51:59;;;;;;;7.57;3.07;;;;;;;;;;5074176;28;20233;-88
2023/03/26 09:54:45;;;;;;;2.83;2.20;;;;;;;;;;5076105;28;20198;-87
2023/03/26 09:57:15;;;;;;;6.33;3.67;;;;;;;;;;5064887;28;20241;-87
2023/03/26 09:59:55;;;;;;;6.03;3.67;;;;;;;;;;5073538;28;20231;-87
2023/03/26 10:02:39;;;;;;;2.83;2.10;;;;;;;;;;5072163;28;20225;-87
2023/03/26 10:05:20;;;;;;;1.70;1.60;;;;;;;;;;5066928;28;20201;-86
2023/03/26 10:07:54;;;;;;;2.37;1.90;;;;;;;;;;5091968;28;20221;-85
2023/03/26 10:10:26;;;;;;;4.03;2.30;;;;;;;;;;5107979;28;20324;-85
2023/03/26 10:12:55;;;;;;;6.30;2.33;;;;;;;;;;5093977;28;20294;-86
2023/03/26 10:15:31;;;;;;;3.47;1.60;;;;;;;;;;5074753;28;20201;-87
2023/03/26 10:18:06;;;;;;;2.13;1.90;;;;;;;;;;5074721;28;20244;-87
2023/03/26 10:20:36;;;;;;;2.53;1.97;;;;;;;;;;5086435;28;20228;-87
2023/03/26 10:23:14;;;;;;;4.03;2.37;;;;;;;;;;5093821;28;20236;-85
2023/03/26 10:25:52;;;;;;;2.40;2.20;;;;;;;;;;5094549;28;20189;-85
2023/03/26 10:28:26;;;;;;;2.20;1.60;;;;;;;;;;5094103;28;20236;-86
2023/03/26 10:31:04;;;;;;;3.53;2.00;;;;;;;;;;5096419;28;20235;-86
2023/03/26 10:33:35;;;;;;;3.60;1.90;;;;;;;;;;5094035;28;20587;-87
2023/03/26 10:36:25;;;;;;;1.93;1.77;;;;;;;;;;5094133;28;20197;-87
2023/03/26 10:39:04;;;;;;;1.73;1.37;;;;;;;;;;5094309;28;20567;-88
2023/03/26 10:41:34;;;;;;;3.00;1.50;;;;;;;;;;5082503;28;20646;-88
2023/03/26 10:44:20;;;;;;;1.80;1.13;;;;;;;;;;5074942;28;20577;-88
2023/03/26 10:47:05;;;;;;;2.60;1.70;;;;;;;;;;5073407;28;20712;-88
2023/03/26 10:49:48;;;;;;;1.10;1.07;;;;;;;;;;5073769;28;20599;-88
2023/03/26 10:52:19;;;;;;;1.60;1.50;;;;;;;;;;5074384;28;20693;-86
2023/03/26 10:54:50;;;;;;;2.83;1.90;;;;;;;;;;5073733;28;20225;-85
2023/03/26 10:57:24;;;;;;;1.60;1.40;;;;;;;;;;5053591;28;20602;-88
2023/03/26 10:59:51;;;;;;;2.43;1.70;;;;;;;;;;5053795;28;20226;-87
2023/03/26 11:02:25;;;;;;;1.50;1.40;;;;;;;;;;5069315;28;20248;-87
2023/03/26 11:04:56;;;;;;;2.27;1.53;;;;;;;;;;5053828;28;20209;-87
2023/03/26 11:07:27;;;;;;;2.27;2.10;;;;;;;;;;5065724;28;20255;-87
2023/03/26 11:09:58;;;;;;;4.60;1.80;;;;;;;;;;5073688;28;20447;-88
2023/03/26 11:12:29;;;;;;;1.43;1.33;;;;;;;;;;5087668;28;20227;-87
2023/03/26 11:15:00;;;;;;;4.83;2.53;;;;;;;;;;5074000;28;20869;-91
2023/03/26 11:17:34;;;;;;;2.13;1.90;;;;;;;;;;5072911;28;20237;-92
2023/03/26 11:20:04;;;;;;;2.97;1.87;;;;;;;;;;5073893;28;20229;-90
2023/03/26 11:22:35;;;;;;;2.13;1.63;;;;;;;;;;5072907;28;20228;-91
2023/03/26 11:25:05;;;;;;;3.80;1.47;;;;;;;;;;5073628;28;20209;-89
2023/03/26 11:27:37;;;;;;;2.07;1.33;;;;;;;;;;5073434;28;20229;-90
2023/03/26 11:30:14;;;;;;;1.57;1.47;;;;;;;;;;5073633;28;20268;-90
2023/03/26 11:32:45;;;;;;;3.07;1.50;;;;;;;;;;5073115;28;20229;-89
2023/03/26 11:35:17;;;;;;;2.70;1.67;;;;;;;;;;5073511;28;20194;-89
2023/03/26 11:37:46;;;;;;;4.23;2.00;;;;;;;;;;5073493;28;20248;-89
2023/03/26 11:40:20;;;;;;;4.23;1.60;;;;;;;;;;5073759;28;20236;-89
2023/03/26 11:42:51;;;;;;;1.07;1.00;;;;;;;;;;5073191;28;20233;-88
2023/03/26 11:45:21;;;;;;;2.07;1.60;;;;;;;;;;5074226;28;20201;-89
2023/03/26 11:47:52;;;;;;;3.33;1.47;;;;;;;;;;5073517;28;20251;-89
2023/03/26 11:50:22;;;;;;;1.93;1.33;;;;;;;;;;5074779;28;20680;-91
2023/03/26 11:52:57;;;;;;;2.00;1.63;;;;;;;;;;5073182;28;20244;-91
2023/03/26 11:55:26;;;;;;;1.20;1.00;;;;;;;;;;5073625;28;20618;-89
2023/03/26 11:57:54;;;;;;;1.17;1.00;;;;;;;;;;5072782;28;20233;-89
2023/03/26 12:00:26;;;;;;;1.57;1.47;;;;;;;;;;5073285;28;20229;-92
2023/03/26 12:02:57;;;;;;;1.37;1.27;;;;;;;;;;5073148;28;20241;-90
2023/03/26 12:05:25;;;;;;;2.27;1.60;;;;;;;;;;5073161;28;20185;-90
2023/03/26 12:07:57;;;;;;;2.80;1.40;;;;;;;;;;5072789;28;20233;-90
2023/03/26 12:10:25;;;;;;;3.23;1.60;;;;;;;;;;5072850;28;20242;-91
2023/03/26 12:12:54;;;;;;;14.43;9.13;;;;;;;;;;5072054;28;20236;-89
2023/03/26 12:15:25;;;;;;;1.53;1.43;;;;;;;;;;5072703;28;20220;-89
2023/03/26 12:17:55;;;;;;;2.73;1.60;;;;;;;;;;5075069;28;20623;-88
2023/03/26 12:20:33;;;;;;;1.67;1.47;;;;;;;;;;5076109;28;20221;-89
2023/03/26 12:23:01;;;;;;;2.83;1.50;;;;;;;;;;5075397;28;20287;-89
2023/03/26 12:25:29;;;;;;;1.70;1.57;;;;;;;;;;5075942;28;20617;-88
2023/03/26 12:28:01;;;;;;;3.17;1.73;;;;;;;;;;5075460;28;20229;-89
2023/03/26 12:30:29;;;;;;;1.67;1.20;;;;;;;;;;5076201;28;20264;-89
2023/03/26 12:32:59;;;;;;;2.93;1.80;;;;;;;;;;5087679;28;20265;-88
2023/03/26 12:35:28;;;;;;;2.97;2.37;;;;;;;;;;5097806;28;20205;-90
2023/03/26 12:37:57;;;;;;;3.93;1.90;;;;;;;;;;5096373;28;20281;-90
2023/03/26 12:40:29;;;;;;;4.13;1.70;;;;;;;;;;5096469;28;20267;-89
2023/03/26 12:42:57;;;;;;;2.17;1.13;;;;;;;;;;5095253;28;20228;-87
2023/03/26 12:45:28;;;;;;;3.33;1.20;;;;;;;;;;5095124;28;20204;-87
2023/03/26 12:47:56;;;;;;;1.70;1.10;;;;;;;;;;5094750;28;20232;-86
2023/03/26 12:50:28;;;;;;;2.27;1.40;;;;;;;;;;5095116;28;20263;-87
2023/03/26 12:53:01;;;;;;;1.03;1.03;;;;;;;;;;5094655;28;20237;-87
2023/03/26 12:55:38;;;;;;;1.90;1.00;;;;;;;;;;5095493;28;20209;-86
2023/03/26 12:58:14;;;;;;;1.20;1.10;;;;;;;;;;5094865;28;20232;-86
2023/03/26 13:00:46;;;;;;;3.93;1.30;;;;;;;;;;5095091;28;20293;-87
2023/03/26 13:03:30;;;;;;;1.10;1.00;;;;;;;;;;5094164;28;20704;-85
2023/03/26 13:06:02;;;;;;;1.87;1.27;;;;;;;;;;5094928;28;20702;-85
2023/03/26 13:08:39;;;;;;;2.00;1.43;;;;;;;;;;5093952;28;20228;-88
2023/03/26 13:11:11;;;;;;;1.27;1.20;;;;;;;;;;5094679;28;20231;-87
2023/03/26 13:13:56;;;;;;;2.90;1.30;;;;;;;;;;5094741;28;20236;-86
2023/03/26 13:16:27;;;;;;;1.70;1.57;;;;;;;;;;5094425;28;20645;-87
2023/03/26 13:18:56;;;;;;;2.73;1.23;;;;;;;;;;5094745;28;20441;-89
2023/03/26 13:21:28;;;;;;;2.80;1.27;;;;;;;;;;5087120;28;20208;-87
2023/03/26 13:24:02;;;;;;;1.43;1.27;;;;;;;;;;5075082;28;20205;-89
2023/03/26 13:26:32;;;;;;;3.57;1.10;;;;;;;;;;5074711;28;20197;-88
2023/03/26 13:29:02;;;;;;;1.43;1.33;;;;;;;;;;5081447;28;20185;-89
2023/03/26 13:31:33;;;;;;;1.10;1.10;;;;;;;;;;5081645;28;20197;-88
2023/03/26 13:34:05;;;;;;;1.20;1.10;;;;;;;;;;5074905;28;20194;-89
2023/03/26 13:36:36;;;;;;;1.10;1.00;;;;;;;;;;5073891;28;20657;-88
2023/03/26 13:39:13;;;;;;;1.30;1.20;;;;;;;;;;5074274;28;20233;-88
2023/03/26 13:41:51;;;;;;;2.43;1.33;;;;;;;;;;5073492;28;20574;-88
2023/03/26 13:44:26;;;;;;;1.93;1.27;;;;;;;;;;5074037;28;20189;-88
2023/03/26 13:46:56;;;;;;;1.17;1.07;;;;;;;;;;5073666;28;20229;-88
2023/03/26 13:49:27;;;;;;;1.30;1.13;;;;;;;;;;5074478;28;20233;-88
2023/03/26 13:51:57;;;;;;;0.73;0.73;;;;;;;;;;5073586;28;20229;-88
2023/03/26 13:54:28;;;;;;;0.90;0.90;;;;;;;;;;5073920;28;20201;-88
2023/03/26 13:56:58;;;;;;;1.23;0.97;;;;;;;;;;5073289;28;20228;-86
2023/03/26 13:59:31;;;;;;;2.83;1.23;;;;;;;;;;5073291;28;20228;-87
2023/03/26 14:02:00;;;;;;;1.70;1.20;;;;;;;;;;5073094;28;20279;-87
2023/03/26 14:04:31;;;;;;;1.63;1.33;;;;;;;;;;5073957;28;20578;-85
2023/03/26 14:07:02;;;;;;;4.43;1.13;;;;;;;;;;5073137;28;20646;-86
2023/03/26 14:09:31;;;;;;;1.73;1.47;;;;;;;;;;5072775;28;20236;-87
2023/03/26 14:12:03;;;;;;;0.90;0.90;;;;;;;;;;5072466;28;20236;-87
2023/03/26 14:14:35;;;;;;;1.80;1.47;;;;;;;;;;5073457;28;20189;-86
2023/03/26 14:17:05;;;;;;;1.13;0.93;;;;;;;;;;5072786;28;20229;-85
2023/03/26 14:19:41;;;;;;;1.53;1.10;;;;;;;;;;5073468;28;20239;-85
2023/03/26 14:22:13;;;;;;;2.17;1.23;;;;;;;;;;5072257;28;20704;-87
2023/03/26 14:24:50;;;;;;;2.60;1.00;;;;;;;;;;5072892;28;20239;-86
2023/03/26 14:27:25;;;;;;;2.87;1.30;;;;;;;;;;5072759;28;20232;-87
2023/03/26 14:30:05;;;;;;;1.60;1.40;;;;;;;;;;5074209;28;20224;-88
2023/03/26 14:32:37;;;;;;;1.40;1.30;;;;;;;;;;5062671;28;20308;-89
2023/03/26 14:35:25;;;;;;;1.00;0.80;;;;;;;;;;5074170;28;20217;-88
2023/03/26 14:38:07;;;;;;;2.70;1.10;;;;;;;;;;5066936;28;20229;-89
2023/03/26 14:40:58;;;;;;;3.07;1.13;;;;;;;;;;5072965;28;20260;-87
2023/03/26 14:43:43;;;;;;;2.30;1.13;;;;;;;;;;5052918;28;20236;-89
2023/03/26 14:46:22;;;;;;;2.30;1.23;;;;;;;;;;5073988;28;20205;-88
2023/03/26 14:49:04;;;;;;;2.40;1.20;;;;;;;;;;5073362;28;20212;-88
2023/03/26 14:51:39;;;;;;;2.70;1.30;;;;;;;;;;5076233;28;20208;-87
2023/03/26 14:54:10;;;;;;;1.00;0.90;;;;;;;;;;5093984;28;20239;-87
2023/03/26 14:56:52;;;;;;;1.63;0.93;;;;;;;;;;5076033;28;20233;-88
2023/03/26 14:59:39;;;;;;;2.23;1.10;;;;;;;;;;5073354;28;20705;-88
2023/03/26 15:02:25;;;;;;;3.60;1.40;;;;;;;;;;5072363;28;20228;-89
2023/03/26 15:05:16;;;;;;;2.10;1.77;;;;;;;;;;5072780;28;20209;-88
2023/03/26 15:07:53;;;;;;;1.73;1.57;;;;;;;;;;5069274;28;20708;-88